Time;durP1;ratioP1;P1;durP2;ratioP2;P2;SDS_P1;SDS_P2;PMS_P1;PMS_P2;Temp;Humidity;BMP_temperature;BMP_pressure;BME280_temperature;BME280_humidity;BME280_pressure;Samples;Min_cycle;Max_cycle;Signal;HPM_P1;HPM_P2
2023/04/26 00:01:03;;;;;;;43.40;39.88;;;12.70;99.90;;;;;;5166541;28;20046;-72
2023/04/26 00:03:34;;;;;;;42.72;39.30;;;12.60;99.90;;;;;;5166318;28;20014;-71
2023/04/26 00:06:07;;;;;;;39.65;36.70;;;12.50;99.90;;;;;;5166394;28;20030;-72
2023/04/26 00:08:39;;;;;;;41.97;38.88;;;12.60;99.90;;;;;;5166073;28;20037;-72
2023/04/26 00:11:10;;;;;;;40.45;37.65;;;12.60;99.90;;;;;;5166327;28;20046;-72
2023/04/26 00:13:41;;;;;;;42.10;38.97;;;12.60;99.90;;;;;;5166363;28;20031;-71
2023/04/26 00:16:13;;;;;;;38.13;34.97;;;12.50;99.90;;;;;;5166512;28;20028;-71
2023/04/26 00:18:45;;;;;;;39.65;36.95;;;12.60;99.90;;;;;;5164995;28;20490;-71
2023/04/26 00:21:16;;;;;;;45.75;41.67;;;12.50;99.90;;;;;;5166189;28;20029;-71
2023/04/26 00:23:46;;;;;;;44.50;40.95;;;12.40;99.90;;;;;;5166039;28;20556;-71
2023/04/26 00:26:17;;;;;;;41.05;38.08;;;12.40;99.90;;;;;;5164523;28;20030;-72
2023/04/26 00:28:48;;;;;;;40.38;37.28;;;12.40;99.90;;;;;;5165983;28;20458;-72
2023/04/26 00:31:19;;;;;;;40.40;37.00;;;12.60;99.90;;;;;;5165931;28;20038;-71
2023/04/26 00:33:50;;;;;;;41.38;38.17;;;12.50;99.90;;;;;;5165576;28;20081;-71
2023/04/26 00:36:21;;;;;;;42.42;39.17;;;12.30;99.90;;;;;;5165836;28;20085;-71
2023/04/26 00:38:52;;;;;;;44.30;40.90;;;12.40;99.90;;;;;;5165599;28;20398;-72
2023/04/26 00:41:23;;;;;;;45.05;41.50;;;12.50;99.90;;;;;;5165645;28;20050;-72
2023/04/26 00:43:54;;;;;;;44.58;41.08;;;12.60;99.90;;;;;;5165584;28;20023;-71
2023/04/26 00:46:35;;;;;;;47.17;43.17;;;12.70;99.90;;;;;;5164362;28;20088;-72
2023/04/26 00:49:11;;;;;;;48.35;44.20;;;12.60;99.90;;;;;;5164258;28;20023;-72
2023/04/26 00:51:56;;;;;;;48.70;44.65;;;12.50;99.90;;;;;;5165432;28;20040;-72
2023/04/26 00:54:27;;;;;;;49.60;45.17;;;12.70;99.90;;;;;;5165409;28;20410;-71
2023/04/26 00:56:59;;;;;;;50.33;46.05;;;12.50;99.90;;;;;;5165366;28;20093;-71
2023/04/26 00:59:30;;;;;;;47.22;43.15;;;12.50;99.90;;;;;;5165376;28;20022;-71
2023/04/26 01:02:04;;;;;;;41.10;37.78;;;12.50;99.90;;;;;;5165317;28;20110;-72
2023/04/26 01:04:36;;;;;;;42.15;38.70;;;12.30;99.90;;;;;;5165198;28;20081;-71
2023/04/26 01:07:07;;;;;;;41.08;37.63;;;12.30;99.90;;;;;;5165263;28;20026;-71
2023/04/26 01:09:39;;;;;;;41.50;38.03;;;12.40;99.90;;;;;;5164990;28;20038;-71
2023/04/26 01:12:11;;;;;;;45.30;41.67;;;12.50;99.90;;;;;;5163839;28;20104;-72
2023/04/26 01:14:44;;;;;;;43.63;40.03;;;12.30;99.90;;;;;;5165158;28;20089;-72
2023/04/26 01:17:14;;;;;;;43.53;39.80;;;12.40;99.90;;;;;;5165194;28;20359;-71
2023/04/26 01:19:49;;;;;;;45.05;41.60;;;12.50;99.90;;;;;;5165249;28;20026;-72
2023/04/26 01:22:20;;;;;;;45.03;41.38;;;12.30;99.90;;;;;;5165130;28;20030;-72
2023/04/26 01:24:54;;;;;;;46.67;42.95;;;12.50;99.90;;;;;;5163839;28;20084;-72
2023/04/26 01:27:25;;;;;;;51.58;47.10;;;12.50;99.90;;;;;;5165500;28;20405;-72
2023/04/26 01:29:55;;;;;;;47.50;43.70;;;12.40;99.90;;;;;;5165297;28;20015;-72
2023/04/26 01:32:26;;;;;;;49.42;45.63;;;12.40;99.90;;;;;;5165248;28;20042;-72
2023/04/26 01:34:59;;;;;;;51.53;47.00;;;12.40;99.90;;;;;;5165339;28;20053;-72
2023/04/26 01:37:30;;;;;;;50.95;46.80;;;12.50;99.90;;;;;;5165555;28;20026;-71
2023/04/26 01:40:01;;;;;;;51.50;47.35;;;12.40;99.90;;;;;;5168988;28;20359;-72
2023/04/26 01:42:32;;;;;;;47.65;43.85;;;12.50;99.90;;;;;;5167961;28;20053;-71
2023/04/26 01:45:03;;;;;;;49.03;45.05;;;12.40;99.90;;;;;;5169202;28;20046;-72
2023/04/26 01:47:33;;;;;;;50.88;46.50;;;12.40;99.90;;;;;;5169198;28;20082;-71
2023/04/26 01:50:05;;;;;;;47.58;43.45;;;12.40;99.90;;;;;;5169054;28;20102;-72
2023/04/26 01:52:36;;;;;;;48.15;44.22;;;12.50;99.90;;;;;;5168869;28;20038;-71
2023/04/26 01:55:07;;;;;;;49.28;45.25;;;12.50;99.90;;;;;;5168881;28;20481;-72
2023/04/26 01:57:38;;;;;;;48.45;44.38;;;12.40;99.90;;;;;;5167475;28;20080;-71
2023/04/26 02:00:10;;;;;;;44.13;40.53;;;12.50;99.90;;;;;;5168585;28;20023;-72
2023/04/26 02:02:41;;;;;;;44.78;41.17;;;12.40;99.90;;;;;;5168753;28;20030;-72
2023/04/26 02:05:12;;;;;;;45.90;41.97;;;12.30;99.90;;;;;;5167436;28;20034;-72
2023/04/26 02:07:42;;;;;;;45.33;41.85;;;12.10;99.90;;;;;;5168629;28;20475;-72
2023/04/26 02:10:13;;;;;;;46.88;42.97;;;12.20;99.90;;;;;;5168415;28;20041;-72
2023/04/26 02:12:44;;;;;;;48.47;44.33;;;12.10;99.90;;;;;;5168396;28;20478;-72
2023/04/26 02:15:15;;;;;;;45.45;41.95;;;12.20;99.90;;;;;;5168547;28;20753;-72
2023/04/26 02:17:46;;;;;;;46.10;42.13;;;12.20;99.90;;;;;;5168491;28;20390;-72
2023/04/26 02:20:17;;;;;;;47.10;43.47;;;12.40;99.90;;;;;;5167172;28;20038;-71
2023/04/26 02:22:47;;;;;;;49.25;45.25;;;12.50;99.90;;;;;;5168341;28;20010;-72
2023/04/26 02:25:18;;;;;;;46.08;42.47;;;12.40;99.90;;;;;;5167077;28;20030;-72
2023/04/26 02:27:49;;;;;;;47.28;43.42;;;12.40;99.90;;;;;;5166908;28;20347;-72
2023/04/26 02:30:20;;;;;;;46.53;42.63;;;12.40;99.90;;;;;;5168110;28;20064;-71
2023/04/26 02:32:53;;;;;;;46.10;42.35;;;12.30;99.90;;;;;;5160221;28;20070;-72
2023/04/26 02:35:25;;;;;;;41.25;37.75;;;12.40;99.90;;;;;;5148066;28;20019;-72
2023/04/26 02:37:56;;;;;;;47.47;43.45;;;12.30;99.90;;;;;;5146791;28;20029;-72
2023/04/26 02:40:27;;;;;;;44.35;40.95;;;12.20;99.90;;;;;;5147672;28;20046;-72
2023/04/26 02:42:58;;;;;;;45.70;41.80;;;12.30;99.90;;;;;;5147757;28;20034;-73
2023/04/26 02:45:28;;;;;;;47.25;43.10;;;12.30;99.90;;;;;;5147843;28;20023;-72
2023/04/26 02:48:00;;;;;;;47.92;43.78;;;12.30;99.90;;;;;;5147765;28;20041;-71
2023/04/26 02:50:30;;;;;;;47.25;43.20;;;12.40;99.90;;;;;;5146344;28;20047;-72
2023/04/26 02:53:02;;;;;;;48.85;44.80;;;12.30;99.90;;;;;;5147888;28;20115;-72
2023/04/26 02:55:33;;;;;;;45.00;41.28;;;12.30;99.90;;;;;;5147816;28;20027;-72
2023/04/26 02:58:04;;;;;;;47.63;43.88;;;12.30;99.90;;;;;;5147623;28;20030;-72
2023/04/26 03:00:35;;;;;;;48.63;44.75;;;12.40;99.90;;;;;;5147547;28;20023;-72
2023/04/26 03:03:06;;;;;;;46.97;43.17;;;12.30;99.90;;;;;;5147570;28;20065;-72
2023/04/26 03:05:37;;;;;;;49.50;45.25;;;12.20;99.90;;;;;;5147446;28;20466;-72
2023/04/26 03:08:08;;;;;;;49.17;45.30;;;12.00;99.90;;;;;;5147601;28;20045;-72
2023/04/26 03:10:38;;;;;;;47.78;44.08;;;12.20;99.90;;;;;;5147164;28;20113;-71
2023/04/26 03:13:09;;;;;;;44.97;41.45;;;12.30;99.90;;;;;;5147176;28;20470;-72
2023/04/26 03:15:45;;;;;;;50.13;45.83;;;12.30;99.90;;;;;;5147158;28;20037;-72
2023/04/26 03:18:15;;;;;;;58.03;53.47;;;12.60;99.90;;;;;;5147334;28;20027;-71
2023/04/26 03:20:47;;;;;;;54.97;50.50;;;12.90;99.90;;;;;;5147268;28;20081;-72
2023/04/26 03:23:18;;;;;;;58.72;54.25;;;12.80;99.90;;;;;;5145802;28;20026;-72
2023/04/26 03:25:49;;;;;;;54.33;50.03;;;12.70;99.90;;;;;;5148562;28;20030;-72
2023/04/26 03:28:20;;;;;;;52.22;47.83;;;12.60;99.90;;;;;;5167146;28;20441;-71
2023/04/26 03:30:51;;;;;;;54.90;50.20;;;12.70;99.90;;;;;;5166879;28;20049;-71
2023/04/26 03:33:22;;;;;;;56.72;51.38;;;12.80;99.90;;;;;;5166955;28;20475;-72
2023/04/26 03:35:53;;;;;;;59.53;54.22;;;13.10;99.90;;;;;;5167056;28;20015;-72
2023/04/26 03:38:24;;;;;;;56.40;51.30;;;13.10;99.90;;;;;;5165524;28;20117;-71
2023/04/26 03:40:54;;;;;;;58.15;53.38;;;13.10;99.90;;;;;;5164508;28;20120;-71
2023/04/26 03:43:25;;;;;;;54.58;49.97;;;13.10;99.90;;;;;;5145758;28;20081;-71
2023/04/26 03:45:56;;;;;;;57.30;52.22;;;13.10;99.90;;;;;;5146356;28;20109;-70
2023/04/26 03:48:27;;;;;;;57.75;52.90;;;13.10;99.90;;;;;;5146072;28;20479;-72
2023/04/26 03:50:58;;;;;;;51.67;47.25;;;13.10;99.90;;;;;;5146716;28;20097;-71
2023/04/26 03:53:29;;;;;;;50.28;45.85;;;13.20;99.90;;;;;;5146342;28;20109;-71
2023/04/26 03:56:00;;;;;;;49.58;45.10;;;13.30;99.90;;;;;;5146503;28;20030;-72
2023/04/26 03:58:30;;;;;;;52.28;47.60;;;13.30;99.90;;;;;;5146671;28;20037;-72
2023/04/26 04:01:02;;;;;;;48.05;44.25;;;13.20;99.90;;;;;;5145795;28;20031;-72
2023/04/26 04:03:33;;;;;;;47.05;43.30;;;13.20;99.90;;;;;;5146519;28;20514;-73
2023/04/26 04:06:04;;;;;;;47.60;44.00;;;13.30;99.90;;;;;;5146564;28;20022;-72
2023/04/26 04:08:35;;;;;;;46.53;42.67;;;13.40;99.90;;;;;;5146274;28;20491;-72
2023/04/26 04:11:06;;;;;;;38.95;35.67;;;13.30;99.90;;;;;;5146338;28;20023;-72
2023/04/26 04:13:37;;;;;;;42.55;39.00;;;13.40;99.90;;;;;;5145997;28;20085;-71
2023/04/26 04:16:09;;;;;;;38.25;35.25;;;13.30;99.90;;;;;;5146108;28;20426;-72
2023/04/26 04:18:39;;;;;;;36.17;33.55;;;13.20;99.90;;;;;;5146119;28;20019;-71
2023/04/26 04:21:10;;;;;;;42.47;38.97;;;13.20;99.90;;;;;;5146023;28;20435;-72
2023/04/26 04:23:43;;;;;;;40.03;37.03;;;13.20;99.90;;;;;;5145917;28;20133;-71
2023/04/26 04:26:13;;;;;;;38.78;35.92;;;13.10;99.90;;;;;;5145915;28;20023;-72
2023/04/26 04:28:45;;;;;;;36.72;34.03;;;13.10;99.90;;;;;;5145846;28;20336;-72
2023/04/26 04:31:16;;;;;;;33.38;30.67;;;13.10;99.90;;;;;;5145796;28;20115;-71
2023/04/26 04:33:47;;;;;;;35.17;32.67;;;13.00;99.90;;;;;;5145587;28;20113;-71
2023/04/26 04:36:18;;;;;;;35.92;33.30;;;12.90;99.90;;;;;;5144508;28;20425;-71
2023/04/26 04:38:49;;;;;;;35.42;33.03;;;12.90;99.90;;;;;;5144162;28;20051;-72
2023/04/26 04:41:21;;;;;;;33.65;31.33;;;13.00;99.90;;;;;;5145550;28;20078;-72
2023/04/26 04:43:52;;;;;;;33.72;31.38;;;13.00;99.90;;;;;;5145650;28;20098;-72
2023/04/26 04:46:24;;;;;;;32.67;30.35;;;13.00;99.90;;;;;;5145520;28;20031;-71
2023/04/26 04:48:55;;;;;;;32.83;30.42;;;13.00;99.90;;;;;;5145588;28;20034;-72
2023/04/26 04:51:26;;;;;;;34.20;31.63;;;13.10;99.90;;;;;;5145538;28;20777;-72
2023/04/26 04:53:57;;;;;;;32.72;30.30;;;13.00;99.90;;;;;;5145498;28;20031;-71
2023/04/26 04:56:28;;;;;;;33.15;30.88;;;13.00;99.90;;;;;;5145541;28;20027;-72
2023/04/26 04:58:59;;;;;;;32.17;29.92;;;13.20;99.90;;;;;;5145363;28;20054;-72
2023/04/26 05:01:33;;;;;;;30.20;28.10;;;13.20;99.90;;;;;;5145308;28;20026;-72
2023/04/26 05:04:06;;;;;;;30.40;28.50;;;13.20;99.90;;;;;;5145199;28;20031;-72
2023/04/26 05:06:37;;;;;;;27.42;25.67;;;13.30;99.90;;;;;;5145242;28;20475;-72
2023/04/26 05:09:09;;;;;;;29.60;27.60;;;13.20;99.90;;;;;;5144097;28;20519;-72
2023/04/26 05:11:40;;;;;;;27.13;25.33;;;13.30;99.90;;;;;;5144815;28;20027;-72
2023/04/26 05:14:10;;;;;;;26.20;24.38;;;13.20;99.90;;;;;;5144570;28;20054;-72
2023/04/26 05:16:41;;;;;;;27.15;25.25;;;13.40;99.90;;;;;;5145107;28;20027;-72
2023/04/26 05:19:12;;;;;;;26.88;25.27;;;13.30;99.90;;;;;;5145422;28;20055;-72
2023/04/26 05:21:43;;;;;;;26.63;24.90;;;13.40;99.90;;;;;;5145431;28;20146;-72
2023/04/26 05:24:14;;;;;;;25.15;23.38;;;13.50;99.90;;;;;;5145233;28;20120;-72
2023/04/26 05:26:45;;;;;;;27.23;25.10;;;13.40;99.90;;;;;;5144901;28;20118;-72
2023/04/26 05:29:16;;;;;;;27.48;25.48;;;13.30;99.90;;;;;;5145071;28;20498;-71
2023/04/26 05:31:46;;;;;;;28.48;26.65;;;13.40;99.90;;;;;;5145020;28;20059;-72
2023/04/26 05:34:17;;;;;;;31.02;28.30;;;13.50;99.90;;;;;;5143703;28;20038;-72
2023/04/26 05:36:48;;;;;;;30.40;28.35;;;13.40;99.90;;;;;;5143635;28;20139;-71
2023/04/26 05:39:20;;;;;;;32.80;30.17;;;13.50;99.90;;;;;;5144552;28;20042;-72
2023/04/26 05:41:51;;;;;;;31.45;29.00;;;13.50;99.90;;;;;;5145011;28;20037;-72
2023/04/26 05:44:21;;;;;;;29.55;27.38;;;13.50;99.90;;;;;;5144948;28;20367;-71
2023/04/26 05:46:52;;;;;;;27.90;25.90;;;13.70;99.90;;;;;;5145033;28;20031;-72
2023/04/26 05:49:23;;;;;;;27.50;25.67;;;13.60;99.90;;;;;;5144893;28;20037;-72
2023/04/26 05:51:54;;;;;;;27.15;25.55;;;13.70;99.90;;;;;;5144792;28;20378;-72
2023/04/26 05:54:25;;;;;;;24.33;22.75;;;13.70;99.90;;;;;;5144632;28;20111;-72
2023/04/26 05:56:56;;;;;;;24.90;23.30;;;13.60;99.90;;;;;;5143558;28;20041;-72
2023/04/26 05:59:31;;;;;;;26.10;24.23;;;13.70;99.90;;;;;;5144919;28;20374;-72
2023/04/26 06:02:03;;;;;;;27.65;25.80;;;13.80;99.90;;;;;;5144637;28;20122;-72
2023/04/26 06:04:34;;;;;;;25.13;23.27;;;13.80;99.90;;;;;;5144403;28;20370;-72
2023/04/26 06:07:06;;;;;;;27.42;25.65;;;14.00;99.90;;;;;;5144365;28;20026;-72
2023/04/26 06:09:37;;;;;;;24.77;22.95;;;14.00;99.90;;;;;;5144132;28;20111;-72
2023/04/26 06:12:07;;;;;;;25.55;22.63;;;14.10;99.90;;;;;;5144263;28;20134;-72
2023/04/26 06:14:38;;;;;;;23.88;22.15;;;14.10;99.90;;;;;;5159241;28;20105;-72
2023/04/26 06:17:09;;;;;;;22.23;20.70;;;14.40;99.90;;;;;;5159267;28;20031;-72
2023/04/26 06:19:40;;;;;;;24.73;23.10;;;14.50;99.90;;;;;;5144283;28;20383;-72
2023/04/26 06:22:11;;;;;;;23.42;21.95;;;14.50;99.90;;;;;;5144508;28;20037;-72
2023/04/26 06:24:41;;;;;;;23.60;22.20;;;14.60;99.90;;;;;;5146871;28;20027;-72
2023/04/26 06:27:12;;;;;;;25.02;22.77;;;14.60;99.90;;;;;;5148372;28;20109;-72
2023/04/26 06:29:44;;;;;;;21.88;20.42;;;14.80;99.90;;;;;;5148461;28;20419;-72
2023/04/26 06:32:14;;;;;;;23.55;21.83;;;14.90;99.90;;;;;;5148193;28;20046;-72
2023/04/26 06:34:45;;;;;;;23.02;21.55;;;15.10;99.90;;;;;;5162920;28;20121;-72
2023/04/26 06:37:16;;;;;;;24.50;22.73;;;15.30;99.90;;;;;;5147768;28;20031;-72
2023/04/26 06:39:47;;;;;;;23.45;21.77;;;15.10;99.90;;;;;;5147451;28;20122;-72
2023/04/26 06:42:18;;;;;;;23.98;22.25;;;15.40;99.90;;;;;;5147993;28;20034;-72
2023/04/26 06:44:48;;;;;;;23.30;21.48;;;15.50;99.90;;;;;;5147496;28;20109;-72
2023/04/26 06:47:19;;;;;;;22.60;21.10;;;15.50;99.90;;;;;;5146518;28;20030;-71
2023/04/26 06:49:50;;;;;;;23.05;21.30;;;15.60;99.90;;;;;;5147838;28;20027;-71
2023/04/26 06:52:21;;;;;;;24.67;22.75;;;15.50;99.90;;;;;;5147700;28;20066;-71
2023/04/26 06:54:52;;;;;;;22.98;21.38;;;15.60;99.90;;;;;;5147668;28;20548;-71
2023/04/26 06:57:23;;;;;;;22.13;20.55;;;15.80;99.90;;;;;;5147544;28;20027;-72
2023/04/26 06:59:54;;;;;;;22.23;20.45;;;16.00;99.90;;;;;;5147538;28;20394;-72
2023/04/26 07:02:25;;;;;;;22.80;20.88;;;16.10;99.90;;;;;;5147653;28;20035;-72
2023/04/26 07:04:56;;;;;;;20.08;18.60;;;16.10;99.90;;;;;;5146224;28;20038;-72
2023/04/26 07:07:27;;;;;;;20.50;19.00;;;16.10;99.90;;;;;;5147319;28;20043;-72
2023/04/26 07:09:58;;;;;;;20.75;18.98;;;16.30;99.90;;;;;;5145966;28;20050;-72
2023/04/26 07:12:28;;;;;;;19.38;17.45;;;16.10;99.90;;;;;;5145868;28;20038;-72
2023/04/26 07:15:00;;;;;;;19.67;17.75;;;16.30;99.90;;;;;;5147281;28;20054;-72
2023/04/26 07:17:31;;;;;;;19.40;17.90;;;16.40;99.90;;;;;;5147121;28;20019;-72
2023/04/26 07:20:03;;;;;;;24.35;22.20;;;16.30;99.90;;;;;;5146000;28;20058;-72
2023/04/26 07:22:33;;;;;;;22.08;20.23;;;16.50;99.90;;;;;;5147171;28;20037;-72
2023/04/26 07:25:05;;;;;;;19.10;17.50;;;16.60;99.90;;;;;;5147179;28;20377;-72
2023/04/26 07:27:36;;;;;;;17.30;15.88;;;16.60;99.90;;;;;;5147010;28;20054;-72
2023/04/26 07:30:07;;;;;;;17.20;15.82;;;16.60;99.90;;;;;;5145895;28;20069;-73
2023/04/26 07:32:38;;;;;;;20.33;18.75;;;16.70;99.90;;;;;;5146769;28;20097;-72
2023/04/26 07:35:14;;;;;;;18.30;16.77;;;16.80;99.90;;;;;;5145809;28;20426;-72
2023/04/26 07:37:45;;;;;;;29.08;26.08;;;17.20;99.90;;;;;;5146859;28;20431;-72
2023/04/26 07:40:17;;;;;;;21.58;19.48;;;17.40;99.90;;;;;;5146427;28;20054;-72
2023/04/26 07:42:48;;;;;;;19.33;18.02;;;17.30;99.90;;;;;;5145548;28;20062;-72
2023/04/26 07:45:19;;;;;;;19.92;18.05;;;17.50;99.90;;;;;;5146786;28;20039;-72
2023/04/26 07:47:50;;;;;;;20.15;18.25;;;17.50;99.90;;;;;;5146791;28;20050;-72
2023/04/26 07:50:20;;;;;;;20.90;19.38;;;17.60;99.90;;;;;;5146595;28;20034;-72
2023/04/26 07:52:51;;;;;;;22.00;20.10;;;17.60;99.90;;;;;;5146480;28;20042;-72
2023/04/26 07:55:23;;;;;;;21.92;20.17;;;17.60;99.90;;;;;;5146541;28;20023;-72
2023/04/26 07:57:53;;;;;;;23.02;21.17;;;17.70;99.90;;;;;;5146570;28;20030;-72
2023/04/26 08:00:24;;;;;;;21.98;20.10;;;17.80;99.90;;;;;;5146505;28;20364;-72
2023/04/26 08:02:55;;;;;;;20.02;18.38;;;17.90;99.90;;;;;;5146250;28;20027;-72
2023/04/26 08:05:26;;;;;;;22.92;20.85;;;17.90;99.90;;;;;;5146147;28;20023;-72
2023/04/26 08:07:57;;;;;;;19.48;17.98;;;18.00;99.90;;;;;;5144959;28;20483;-72
2023/04/26 08:10:28;;;;;;;22.10;20.60;;;17.90;99.90;;;;;;5144644;28;20066;-72
2023/04/26 08:13:02;;;;;;;22.80;21.00;;;17.80;99.90;;;;;;5146059;28;20030;-72
2023/04/26 08:15:33;;;;;;;23.70;22.05;;;17.80;99.90;;;;;;5146051;28;20058;-72
2023/04/26 08:18:04;;;;;;;23.13;21.52;;;17.70;99.90;;;;;;5145967;28;20031;-72
2023/04/26 08:20:35;;;;;;;24.58;22.70;;;17.60;99.90;;;;;;5144371;28;20034;-72
2023/04/26 08:23:05;;;;;;;25.10;22.83;;;17.50;99.90;;;;;;5145956;28;20034;-72
2023/04/26 08:25:37;;;;;;;22.90;21.25;;;17.40;99.90;;;;;;5145904;28;20023;-72
2023/04/26 08:28:07;;;;;;;23.98;22.33;;;17.40;99.90;;;;;;5148329;28;20026;-72
2023/04/26 08:30:38;;;;;;;32.10;29.48;;;17.40;99.90;;;;;;5154234;28;20037;-72
2023/04/26 08:33:09;;;;;;;24.70;22.80;;;17.00;99.90;;;;;;5145787;28;20118;-72
2023/04/26 08:35:40;;;;;;;22.65;21.05;;;17.10;99.90;;;;;;5146093;28;20027;-72
2023/04/26 08:38:11;;;;;;;30.25;27.48;;;17.10;99.90;;;;;;5145807;28;20093;-72
2023/04/26 08:40:45;;;;;;;23.13;21.42;;;16.80;99.90;;;;;;5145494;28;20051;-72
2023/04/26 08:43:16;;;;;;;25.83;23.67;;;16.70;99.90;;;;;;5145826;28;20031;-72
2023/04/26 08:45:47;;;;;;;23.77;22.17;;;16.60;99.90;;;;;;5145765;28;20027;-72
2023/04/26 08:48:19;;;;;;;23.55;22.05;;;16.60;99.90;;;;;;5145514;28;20477;-72
2023/04/26 08:50:50;;;;;;;22.25;20.75;;;16.60;99.90;;;;;;5144369;28;20037;-71
2023/04/26 08:53:22;;;;;;;23.58;21.50;;;16.60;99.90;;;;;;5145374;28;20042;-72
2023/04/26 08:55:53;;;;;;;21.17;19.88;;;16.60;99.90;;;;;;5145464;28;20061;-72
2023/04/26 08:58:25;;;;;;;24.38;22.77;;;16.70;99.90;;;;;;5145359;28;20113;-72
2023/04/26 09:00:57;;;;;;;24.02;22.60;;;16.60;99.90;;;;;;5145374;28;20031;-72
2023/04/26 09:03:28;;;;;;;22.98;21.63;;;16.40;99.90;;;;;;5145423;28;20026;-71
2023/04/26 09:06:00;;;;;;;23.42;22.02;;;16.40;99.90;;;;;;5145068;28;20394;-72
2023/04/26 09:08:34;;;;;;;23.15;21.85;;;16.10;99.90;;;;;;5144528;28;20029;-72
2023/04/26 09:11:05;;;;;;;23.00;21.40;;;16.20;99.90;;;;;;5145140;28;20026;-72
2023/04/26 09:13:36;;;;;;;24.90;23.08;;;16.10;99.90;;;;;;5144783;28;20097;-71
2023/04/26 09:16:06;;;;;;;23.52;22.13;;;16.10;99.90;;;;;;5144802;28;20069;-71
2023/04/26 09:18:49;;;;;;;26.42;24.73;;;16.00;99.90;;;;;;5144877;28;20824;-71
2023/04/26 09:21:20;;;;;;;25.90;23.88;;;15.90;99.90;;;;;;5158760;28;20089;-71
2023/04/26 09:24:00;;;;;;;25.52;24.02;;;15.80;99.90;;;;;;5148622;28;20436;-71
2023/04/26 09:26:31;;;;;;;;;;;15.80;99.90;;;;;;5149443;28;20105;-71
2023/04/26 09:29:19;;;;;;;24.80;23.15;;;15.80;99.90;;;;;;5165121;28;20000;-71
2023/04/26 09:31:50;;;;;;;25.52;23.92;;;15.80;99.90;;;;;;5164992;28;20022;-71
2023/04/26 09:34:20;;;;;;;23.63;22.15;;;15.70;99.90;;;;;;5165003;28;20038;-72
2023/04/26 09:36:55;;;;;;;22.25;20.85;;;15.60;99.90;;;;;;5165103;28;20019;-71
2023/04/26 09:39:37;;;;;;;23.52;22.13;;;15.40;99.90;;;;;;5163363;28;20058;-72
2023/04/26 09:42:10;;;;;;;22.40;20.95;;;15.40;99.90;;;;;;5145136;28;20037;-72
2023/04/26 09:44:40;;;;;;;21.27;20.00;;;15.30;99.90;;;;;;5145057;28;20053;-72
2023/04/26 09:47:11;;;;;;;21.35;19.83;;;15.50;99.90;;;;;;5161040;28;20049;-72
2023/04/26 09:49:50;;;;;;;18.27;17.10;;;15.60;99.90;;;;;;5164964;28;20496;-73
2023/04/26 09:52:21;;;;;;;23.60;21.88;;;15.30;99.90;;;;;;5164792;28;20034;-72
2023/04/26 09:54:53;;;;;;;19.10;17.90;;;15.00;99.90;;;;;;5164957;28;20023;-72
2023/04/26 09:57:24;;;;;;;20.17;19.08;;;15.30;99.90;;;;;;5164992;28;20419;-73
2023/04/26 09:59:55;;;;;;;22.00;20.60;;;15.40;99.90;;;;;;5166103;28;20058;-72
2023/04/26 10:02:28;;;;;;;22.17;20.67;;;15.40;99.90;;;;;;5168724;28;20034;-72
2023/04/26 10:05:01;;;;;;;19.88;18.58;;;15.50;99.90;;;;;;5168761;28;20058;-73
2023/04/26 10:07:33;;;;;;;20.55;19.25;;;15.20;99.90;;;;;;5168728;28;20050;-73
2023/04/26 10:10:05;;;;;;;20.77;19.38;;;15.40;99.90;;;;;;5168598;28;20034;-73
2023/04/26 10:12:36;;;;;;;18.40;17.30;;;15.80;99.90;;;;;;5168316;28;20378;-72
2023/04/26 10:15:11;;;;;;;23.08;21.60;;;15.50;99.90;;;;;;5168398;28;20038;-71
2023/04/26 10:17:41;;;;;;;22.60;20.85;;;15.60;99.90;;;;;;5168457;28;20022;-71
2023/04/26 10:20:15;;;;;;;19.67;18.48;;;15.50;99.90;;;;;;5167020;28;20041;-71
2023/04/26 10:22:51;;;;;;;18.10;17.00;;;15.50;99.90;;;;;;5168330;28;20172;-72
2023/04/26 10:25:37;;;;;;;20.00;18.70;;;15.70;99.90;;;;;;5168444;28;20505;-72
2023/04/26 10:28:08;;;;;;;21.85;20.38;;;15.70;99.90;;;;;;5168426;28;20037;-71
2023/04/26 10:31:00;;;;;;;22.08;20.38;;;15.50;99.90;;;;;;5168165;28;20022;-72
2023/04/26 10:33:31;;;;;;;23.00;21.08;;;15.40;99.90;;;;;;5167938;28;20035;-71
2023/04/26 10:36:11;;;;;;;22.63;21.13;;;15.00;99.90;;;;;;5168082;28;20084;-71
2023/04/26 10:39:31;;;;;;;19.40;18.10;;;15.20;99.90;;;;;;5167955;28;20490;-72
2023/04/26 10:42:29;;;;;;;21.73;20.33;;;15.00;99.90;;;;;;5159287;28;20058;-71
2023/04/26 10:45:27;;;;;;;21.17;19.90;;;14.80;99.90;;;;;;5167887;28;20034;-73
2023/04/26 10:48:27;;;;;;;24.73;23.15;;;14.90;99.90;;;;;;5167951;28;20058;-72
2023/04/26 10:51:00;;;;;;;21.55;20.25;;;14.60;99.90;;;;;;5162987;28;20484;-72
2023/04/26 10:53:44;;;;;;;25.50;23.95;;;14.70;99.90;;;;;;5167517;28;20042;-72
2023/04/26 10:56:30;;;;;;;23.50;21.23;;;14.70;99.90;;;;;;5167847;28;20429;-72
2023/04/26 10:59:18;;;;;;;22.50;21.10;;;14.70;99.90;;;;;;5167663;28;20026;-71
2023/04/26 11:01:54;;;;;;;24.30;22.80;;;14.70;99.90;;;;;;5167994;28;20077;-72
2023/04/26 11:04:51;;;;;;;25.00;23.48;;;14.70;99.90;;;;;;5160019;28;20474;-72
2023/04/26 11:07:38;;;;;;;26.15;24.42;;;14.60;99.90;;;;;;5147663;28;20695;-72
2023/04/26 11:10:21;;;;;;;25.48;23.80;;;15.00;99.90;;;;;;5147567;28;20035;-72
2023/04/26 11:13:02;;;;;;;24.42;23.02;;;14.80;99.90;;;;;;5147375;28;20093;-72
2023/04/26 11:15:34;;;;;;;22.98;21.13;;;15.00;99.90;;;;;;5147466;28;20069;-72
2023/04/26 11:18:05;;;;;;;23.00;21.30;;;15.00;99.90;;;;;;5147467;28;20031;-73
2023/04/26 11:20:36;;;;;;;20.90;19.50;;;15.40;99.90;;;;;;5147134;28;20079;-72
2023/04/26 11:23:07;;;;;;;20.10;18.80;;;15.10;99.90;;;;;;5147288;28;20054;-72
2023/04/26 11:25:39;;;;;;;20.23;18.67;;;15.50;99.90;;;;;;5147117;28;20059;-73
2023/04/26 11:28:10;;;;;;;21.48;20.02;;;15.60;99.90;;;;;;5147073;28;20071;-73
2023/04/26 11:30:43;;;;;;;19.40;18.00;;;15.60;99.90;;;;;;5146853;28;20099;-73
2023/04/26 11:33:18;;;;;;;20.38;18.95;;;15.80;99.90;;;;;;5146988;28;20035;-73
2023/04/26 11:35:51;;;;;;;19.23;17.83;;;16.00;99.90;;;;;;5146806;28;20439;-73
2023/04/26 11:38:26;;;;;;;21.38;19.77;;;16.20;99.90;;;;;;5146638;28;20027;-72
2023/04/26 11:41:02;;;;;;;21.55;19.45;;;16.20;99.90;;;;;;5147389;28;20053;-72
2023/04/26 11:43:37;;;;;;;20.55;18.77;;;16.30;99.90;;;;;;5146397;28;20054;-75
2023/04/26 11:46:08;;;;;;;20.08;18.48;;;16.70;99.90;;;;;;5147705;28;20111;-74
2023/04/26 11:48:40;;;;;;;22.75;20.70;;;16.80;99.90;;;;;;5147535;28;20051;-74
2023/04/26 11:51:11;;;;;;;19.10;17.80;;;17.10;99.90;;;;;;5147723;28;20364;-76
2023/04/26 11:53:43;;;;;;;18.92;17.60;;;16.70;99.90;;;;;;5147860;28;20038;-76
2023/04/26 11:56:16;;;;;;;19.60;18.05;;;17.10;99.90;;;;;;5147757;28;20038;-76
2023/04/26 11:58:48;;;;;;;17.80;16.60;;;17.30;99.90;;;;;;5147960;28;20422;-75
2023/04/26 12:01:20;;;;;;;19.27;17.77;;;17.20;99.90;;;;;;5147593;28;20027;-75
2023/04/26 12:03:53;;;;;;;62.05;42.63;;;17.50;99.90;;;;;;5147466;28;20023;-76
2023/04/26 12:06:43;;;;;;;19.27;17.67;;;17.70;99.90;;;;;;5148079;28;20114;-76
2023/04/26 12:09:14;;;;;;;18.75;17.75;;;17.40;99.90;;;;;;5147265;28;20114;-74
2023/04/26 12:11:59;;;;;;;107.75;96.03;;;17.20;99.90;;;;;;5147445;28;20117;-75
2023/04/26 12:14:38;;;;;;;19.52;18.00;;;17.20;99.90;;;;;;5147212;28;20077;-76
2023/04/26 12:17:09;;;;;;;18.73;17.52;;;17.20;99.90;;;;;;5147445;28;20080;-78
2023/04/26 12:19:40;;;;;;;20.65;19.13;;;17.30;99.90;;;;;;5150908;28;20022;-80
2023/04/26 12:22:10;;;;;;;20.30;18.85;;;17.20;99.90;;;;;;5166542;28;20402;-76
2023/04/26 12:24:42;;;;;;;21.00;19.25;;;17.30;99.90;;;;;;5167173;28;20370;-82
2023/04/26 12:27:20;;;;;;;21.42;19.77;;;17.10;99.90;;;;;;5166797;28;20028;-76
2023/04/26 12:29:51;;;;;;;21.58;20.17;;;16.70;99.90;;;;;;5166768;28;20014;-78
2023/04/26 12:32:22;;;;;;;20.30;18.90;;;17.10;99.90;;;;;;5166773;28;20057;-75
2023/04/26 12:34:53;;;;;;;20.92;19.67;;;16.90;99.90;;;;;;5166894;28;20038;-75
2023/04/26 12:37:24;;;;;;;21.38;20.10;;;16.80;99.90;;;;;;5156772;28;20427;-75
2023/04/26 12:39:55;;;;;;;23.55;22.15;;;16.70;99.90;;;;;;5146379;28;20106;-74
2023/04/26 12:42:26;;;;;;;23.33;21.85;;;16.70;99.90;;;;;;5165495;28;20026;-74
2023/04/26 12:44:56;;;;;;;24.05;22.65;;;17.00;99.90;;;;;;5166271;28;20029;-84
2023/04/26 12:47:27;;;;;;;22.00;20.70;;;17.10;99.90;;;;;;5166249;28;20108;-79
2023/04/26 12:49:59;;;;;;;21.85;20.38;;;17.10;99.90;;;;;;5166131;28;20038;-74
2023/04/26 12:52:31;;;;;;;20.98;19.58;;;17.20;99.90;;;;;;5165822;28;20046;-78
2023/04/26 12:55:03;;;;;;;21.98;20.67;;;17.10;99.90;;;;;;5165781;28;20065;-79